sensor_id;sensor_type;location;lat;lon;timestamp;pressure;altitude;pressure_sealevel;temperature;humidity
45357;BME280;31092;51.924;21.448;2023-03-14T00:00:20;98775.53;;;7.98;100.00
45357;BME280;31092;51.924;21.448;2023-03-14T00:02:51;98745.75;;;7.78;100.00
45357;BME280;31092;51.924;21.448;2023-03-14T00:05:16;98769.03;;;7.92;100.00
45357;BME280;31092;51.924;21.448;2023-03-14T00:07:42;98722.66;;;7.62;100.00
45357;BME280;31092;51.924;21.448;2023-03-14T00:10:12;98748.25;;;7.80;100.00
45357;BME280;31092;51.924;21.448;2023-03-14T00:12:38;98760.38;;;7.90;100.00
45357;BME280;31092;51.924;21.448;2023-03-14T00:15:04;98756.88;;;7.90;100.00
45357;BME280;31092;51.924;21.448;2023-03-14T00:17:33;98658.34;;;7.33;100.00
45357;BME280;31092;51.924;21.448;2023-03-14T00:19:59;98668.69;;;7.36;100.00
45357;BME280;31092;51.924;21.448;2023-03-14T00:22:34;98670.72;;;7.49;100.00
45357;BME280;31092;51.924;21.448;2023-03-14T00:24:59;98651.78;;;7.35;100.00
45357;BME280;31092;51.924;21.448;2023-03-14T00:27:25;98734.31;;;7.84;100.00
45357;BME280;31092;51.924;21.448;2023-03-14T00:29:50;98632.38;;;7.18;100.00
45357;BME280;31092;51.924;21.448;2023-03-14T00:32:16;98649.09;;;7.35;100.00
45357;BME280;31092;51.924;21.448;2023-03-14T00:34:41;98644.31;;;7.31;100.00
45357;BME280;31092;51.924;21.448;2023-03-14T00:37:07;98726.44;;;7.83;100.00
45357;BME280;31092;51.924;21.448;2023-03-14T00:39:32;98734.84;;;7.80;100.00
45357;BME280;31092;51.924;21.448;2023-03-14T00:41:58;98672.84;;;7.38;100.00
45357;BME280;31092;51.924;21.448;2023-03-14T00:44:23;98650.94;;;7.20;100.00
45357;BME280;31092;51.924;21.448;2023-03-14T00:46:50;98717.28;;;7.62;100.00
45357;BME280;31092;51.924;21.448;2023-03-14T00:49:15;98649.28;;;7.19;100.00
45357;BME280;31092;51.924;21.448;2023-03-14T00:51:41;98695.09;;;7.54;100.00
45357;BME280;31092;51.924;21.448;2023-03-14T00:54:06;98705.09;;;7.60;100.00
45357;BME280;31092;51.924;21.448;2023-03-14T00:56:32;98703.91;;;7.62;100.00
45357;BME280;31092;51.924;21.448;2023-03-14T00:58:57;98637.72;;;7.18;100.00
45357;BME280;31092;51.924;21.448;2023-03-14T01:01:23;98626.09;;;7.11;100.00
45357;BME280;31092;51.924;21.448;2023-03-14T01:03:54;98613.72;;;6.95;100.00
45357;BME280;31092;51.924;21.448;2023-03-14T01:06:22;98702.78;;;7.42;100.00
45357;BME280;31092;51.924;21.448;2023-03-14T01:08:49;98622.41;;;6.98;100.00
45357;BME280;31092;51.924;21.448;2023-03-14T01:11:18;98605.19;;;6.77;100.00
45357;BME280;31092;51.924;21.448;2023-03-14T01:13:45;98685.09;;;7.18;100.00
45357;BME280;31092;51.924;21.448;2023-03-14T01:16:11;98605.00;;;6.79;100.00
45357;BME280;31092;51.924;21.448;2023-03-14T01:18:38;98581.13;;;6.54;100.00
45357;BME280;31092;51.924;21.448;2023-03-14T01:21:11;98578.53;;;6.46;100.00
45357;BME280;31092;51.924;21.448;2023-03-14T01:23:38;98653.59;;;6.90;100.00
45357;BME280;31092;51.924;21.448;2023-03-14T01:26:03;98647.91;;;6.85;100.00
45357;BME280;31092;51.924;21.448;2023-03-14T01:28:29;98574.66;;;6.34;100.00
45357;BME280;31092;51.924;21.448;2023-03-14T01:30:54;98563.16;;;6.25;100.00
45357;BME280;31092;51.924;21.448;2023-03-14T01:33:20;98664.34;;;6.82;100.00
45357;BME280;31092;51.924;21.448;2023-03-14T01:35:45;98583.66;;;6.33;100.00
45357;BME280;31092;51.924;21.448;2023-03-14T01:38:11;98562.69;;;6.21;100.00
45357;BME280;31092;51.924;21.448;2023-03-14T01:40:44;98620.78;;;6.51;100.00
45357;BME280;31092;51.924;21.448;2023-03-14T01:43:15;98596.03;;;6.34;100.00
45357;BME280;31092;51.924;21.448;2023-03-14T01:51:56;98644.84;;;6.51;100.00
45357;BME280;31092;51.924;21.448;2023-03-14T01:55:06;98636.34;;;6.47;100.00
45357;BME280;31092;51.924;21.448;2023-03-14T01:57:36;98598.81;;;6.17;100.00
45357;BME280;31092;51.924;21.448;2023-03-14T02:00:07;98528.25;;;5.72;100.00
45357;BME280;31092;51.924;21.448;2023-03-14T02:02:40;98557.75;;;5.87;100.00
45357;BME280;31092;51.924;21.448;2023-03-14T02:05:07;98640.47;;;6.35;100.00
45357;BME280;31092;51.924;21.448;2023-03-14T02:07:39;98633.47;;;6.34;100.00
45357;BME280;31092;51.924;21.448;2023-03-14T02:10:07;98630.59;;;6.35;100.00
45357;BME280;31092;51.924;21.448;2023-03-14T02:12:34;98543.06;;;5.83;100.00
45357;BME280;31092;51.924;21.448;2023-03-14T02:15:00;98555.72;;;5.89;100.00
45357;BME280;31092;51.924;21.448;2023-03-14T02:17:25;98608.97;;;6.22;100.00
45357;BME280;31092;51.924;21.448;2023-03-14T02:22:20;98585.50;;;6.09;100.00
45357;BME280;31092;51.924;21.448;2023-03-14T02:24:51;98627.75;;;6.37;100.00
45357;BME280;31092;51.924;21.448;2023-03-14T02:27:22;98541.22;;;5.84;100.00
45357;BME280;31092;51.924;21.448;2023-03-14T02:30:13;98626.97;;;6.28;100.00
45357;BME280;31092;51.924;21.448;2023-03-14T02:32:40;98517.97;;;5.61;100.00
45357;BME280;31092;51.924;21.448;2023-03-14T02:35:09;98625.13;;;6.29;100.00
45357;BME280;31092;51.924;21.448;2023-03-14T02:37:41;98580.03;;;6.03;100.00
45357;BME280;31092;51.924;21.448;2023-03-14T02:40:08;98503.38;;;5.49;100.00
45357;BME280;31092;51.924;21.448;2023-03-14T02:42:34;98574.91;;;5.93;100.00
45357;BME280;31092;51.924;21.448;2023-03-14T02:47:50;98552.88;;;5.91;100.00
45357;BME280;31092;51.924;21.448;2023-03-14T02:50:20;98574.03;;;6.00;100.00
45357;BME280;31092;51.924;21.448;2023-03-14T02:52:47;98501.13;;;5.61;100.00
45357;BME280;31092;51.924;21.448;2023-03-14T02:55:13;98497.97;;;5.57;100.00
45357;BME280;31092;51.924;21.448;2023-03-14T02:57:39;98479.81;;;5.52;100.00
45357;BME280;31092;51.924;21.448;2023-03-14T03:00:05;98576.28;;;6.12;100.00
45357;BME280;31092;51.924;21.448;2023-03-14T03:02:31;98494.63;;;5.63;100.00
45357;BME280;31092;51.924;21.448;2023-03-14T03:04:57;98527.50;;;5.87;100.00
45357;BME280;31092;51.924;21.448;2023-03-14T03:07:23;98562.63;;;6.07;100.00
45357;BME280;31092;51.924;21.448;2023-03-14T03:09:49;98545.94;;;6.05;100.00
45357;BME280;31092;51.924;21.448;2023-03-14T03:12:14;98507.22;;;5.78;100.00
45357;BME280;31092;51.924;21.448;2023-03-14T03:14:40;98511.38;;;5.80;100.00
45357;BME280;31092;51.924;21.448;2023-03-14T03:17:05;98501.25;;;5.67;100.00
45357;BME280;31092;51.924;21.448;2023-03-14T03:19:32;98567.09;;;6.14;100.00
45357;BME280;31092;51.924;21.448;2023-03-14T03:21:58;98540.31;;;5.99;100.00
45357;BME280;31092;51.924;21.448;2023-03-14T03:24:24;98535.97;;;5.98;100.00
45357;BME280;31092;51.924;21.448;2023-03-14T03:26:50;98556.47;;;6.06;100.00
45357;BME280;31092;51.924;21.448;2023-03-14T03:29:16;98466.63;;;5.51;100.00
45357;BME280;31092;51.924;21.448;2023-03-14T03:31:41;98565.59;;;6.12;100.00
45357;BME280;31092;51.924;21.448;2023-03-14T03:34:07;98535.31;;;5.96;100.00
45357;BME280;31092;51.924;21.448;2023-03-14T03:36:33;98563.88;;;6.19;100.00
45357;BME280;31092;51.924;21.448;2023-03-14T03:38:59;98544.13;;;6.05;100.00
45357;BME280;31092;51.924;21.448;2023-03-14T03:41:24;98455.78;;;5.52;100.00
45357;BME280;31092;51.924;21.448;2023-03-14T03:43:50;98486.41;;;5.65;100.00
45357;BME280;31092;51.924;21.448;2023-03-14T03:46:15;98513.97;;;5.88;100.00
45357;BME280;31092;51.924;21.448;2023-03-14T03:48:41;98546.72;;;6.13;100.00
45357;BME280;31092;51.924;21.448;2023-03-14T03:51:06;98510.28;;;5.89;100.00
45357;BME280;31092;51.924;21.448;2023-03-14T03:53:32;98538.59;;;6.07;100.00
45357;BME280;31092;51.924;21.448;2023-03-14T03:55:57;98551.94;;;6.07;100.00
45357;BME280;31092;51.924;21.448;2023-03-14T03:58:23;98491.88;;;5.71;100.00
45357;BME280;31092;51.924;21.448;2023-03-14T04:00:48;98529.34;;;5.94;100.00
45357;BME280;31092;51.924;21.448;2023-03-14T04:03:14;98492.66;;;5.80;100.00
45357;BME280;31092;51.924;21.448;2023-03-14T04:05:39;98454.50;;;5.48;100.00
45357;BME280;31092;51.924;21.448;2023-03-14T04:08:05;98458.00;;;5.49;100.00
45357;BME280;31092;51.924;21.448;2023-03-14T04:10:34;98523.13;;;5.94;100.00
45357;BME280;31092;51.924;21.448;2023-03-14T04:12:59;98491.34;;;5.76;100.00
45357;BME280;31092;51.924;21.448;2023-03-14T04:15:25;98469.88;;;5.69;100.00
45357;BME280;31092;51.924;21.448;2023-03-14T04:17:51;98523.91;;;6.03;100.00
45357;BME280;31092;51.924;21.448;2023-03-14T04:20:16;98446.91;;;5.60;100.00
45357;BME280;31092;51.924;21.448;2023-03-14T04:22:42;98521.84;;;6.13;100.00
45357;BME280;31092;51.924;21.448;2023-03-14T04:25:07;98527.00;;;6.14;100.00
45357;BME280;31092;51.924;21.448;2023-03-14T04:27:33;98518.44;;;6.19;100.00
45357;BME280;31092;51.924;21.448;2023-03-14T04:29:58;98478.66;;;6.01;100.00
45357;BME280;31092;51.924;21.448;2023-03-14T04:32:24;98483.72;;;5.96;100.00
45357;BME280;31092;51.924;21.448;2023-03-14T04:34:49;98395.28;;;5.45;100.00
45357;BME280;31092;51.924;21.448;2023-03-14T04:37:15;98474.81;;;5.81;100.00
45357;BME280;31092;51.924;21.448;2023-03-14T04:39:41;98436.41;;;5.59;100.00
45357;BME280;31092;51.924;21.448;2023-03-14T04:42:06;98417.16;;;5.40;100.00
45357;BME280;31092;51.924;21.448;2023-03-14T04:44:32;98418.50;;;5.36;100.00
45357;BME280;31092;51.924;21.448;2023-03-14T04:46:57;98443.16;;;5.46;100.00
45357;BME280;31092;51.924;21.448;2023-03-14T04:49:23;98505.38;;;5.78;100.00
45357;BME280;31092;51.924;21.448;2023-03-14T04:51:48;98434.53;;;5.36;100.00
45357;BME280;31092;51.924;21.448;2023-03-14T04:54:17;98445.47;;;5.49;100.00
45357;BME280;31092;51.924;21.448;2023-03-14T04:56:42;98528.91;;;6.06;100.00
45357;BME280;31092;51.924;21.448;2023-03-14T04:59:08;98523.09;;;6.02;100.00
45357;BME280;31092;51.924;21.448;2023-03-14T05:01:34;98495.44;;;5.95;100.00
45357;BME280;31092;51.924;21.448;2023-03-14T05:03:59;98501.88;;;6.00;100.00
45357;BME280;31092;51.924;21.448;2023-03-14T05:06:25;98478.84;;;5.99;100.00
45357;BME280;31092;51.924;21.448;2023-03-14T05:08:50;98465.69;;;5.98;100.00
45357;BME280;31092;51.924;21.448;2023-03-14T05:11:16;98404.09;;;5.68;100.00
45357;BME280;31092;51.924;21.448;2023-03-14T05:13:41;98339.44;;;5.35;100.00
45357;BME280;31092;51.924;21.448;2023-03-14T05:16:09;98468.38;;;6.13;100.00
45357;BME280;31092;51.924;21.448;2023-03-14T05:18:35;98459.34;;;6.14;100.00
45357;BME280;31092;51.924;21.448;2023-03-14T05:21:02;98479.19;;;6.19;100.00
45357;BME280;31092;51.924;21.448;2023-03-14T05:23:27;98375.94;;;5.66;100.00
45357;BME280;31092;51.924;21.448;2023-03-14T05:25:53;98447.00;;;6.13;100.00
45357;BME280;31092;51.924;21.448;2023-03-14T05:28:18;98475.78;;;6.26;100.00
45357;BME280;31092;51.924;21.448;2023-03-14T05:30:44;98407.75;;;5.90;100.00
45357;BME280;31092;51.924;21.448;2023-03-14T05:33:09;98428.88;;;6.23;100.00
45357;BME280;31092;51.924;21.448;2023-03-14T05:35:35;98355.06;;;5.84;100.00
45357;BME280;31092;51.924;21.448;2023-03-14T05:38:00;98450.63;;;6.35;100.00
45357;BME280;31092;51.924;21.448;2023-03-14T05:40:26;98449.97;;;6.33;100.00
45357;BME280;31092;51.924;21.448;2023-03-14T05:42:51;98419.00;;;6.23;100.00
45357;BME280;31092;51.924;21.448;2023-03-14T05:45:17;98462.38;;;6.63;100.00
45357;BME280;31092;51.924;21.448;2023-03-14T05:47:43;98463.47;;;6.69;100.00
45357;BME280;31092;51.924;21.448;2023-03-14T05:50:09;98446.31;;;6.63;100.00
45357;BME280;31092;51.924;21.448;2023-03-14T05:52:34;98468.72;;;6.77;100.00
45357;BME280;31092;51.924;21.448;2023-03-14T05:55:00;98321.38;;;5.98;100.00
45357;BME280;31092;51.924;21.448;2023-03-14T05:57:25;98383.97;;;6.48;100.00
45357;BME280;31092;51.924;21.448;2023-03-14T05:59:51;98412.47;;;6.70;100.00
45357;BME280;31092;51.924;21.448;2023-03-14T06:02:16;98421.41;;;6.78;100.00
45357;BME280;31092;51.924;21.448;2023-03-14T06:04:42;98445.09;;;6.95;100.00
45357;BME280;31092;51.924;21.448;2023-03-14T06:07:07;98340.34;;;6.33;100.00
45357;BME280;31092;51.924;21.448;2023-03-14T06:09:33;98449.34;;;7.05;100.00
45357;BME280;31092;51.924;21.448;2023-03-14T06:11:58;98394.66;;;6.63;100.00
45357;BME280;31092;51.924;21.448;2023-03-14T06:14:24;98452.38;;;7.02;100.00
45357;BME280;31092;51.924;21.448;2023-03-14T06:16:49;98362.84;;;6.53;100.00
45357;BME280;31092;51.924;21.448;2023-03-14T06:19:15;98408.69;;;6.80;100.00
45357;BME280;31092;51.924;21.448;2023-03-14T06:21:41;98439.63;;;7.04;100.00
45357;BME280;31092;51.924;21.448;2023-03-14T06:24:07;98425.53;;;6.95;100.00
45357;BME280;31092;51.924;21.448;2023-03-14T06:26:32;98448.13;;;7.07;100.00
45357;BME280;31092;51.924;21.448;2023-03-14T06:28:58;98364.31;;;6.70;100.00
45357;BME280;31092;51.924;21.448;2023-03-14T06:31:31;98432.59;;;7.17;100.00
45357;BME280;31092;51.924;21.448;2023-03-14T06:33:57;98443.25;;;7.32;100.00
45357;BME280;31092;51.924;21.448;2023-03-14T06:36:23;98358.25;;;6.98;100.00
45357;BME280;31092;51.924;21.448;2023-03-14T06:38:48;98339.53;;;6.98;100.00
45357;BME280;31092;51.924;21.448;2023-03-14T06:41:14;98425.31;;;7.69;100.00
45357;BME280;31092;51.924;21.448;2023-03-14T06:43:39;98330.28;;;7.22;100.00
45357;BME280;31092;51.924;21.448;2023-03-14T06:46:05;98342.47;;;7.46;100.00
45357;BME280;31092;51.924;21.448;2023-03-14T06:48:30;98314.22;;;7.43;100.00
45357;BME280;31092;51.924;21.448;2023-03-14T06:50:56;98387.88;;;8.04;100.00
45357;BME280;31092;51.924;21.448;2023-03-14T06:53:21;98332.88;;;7.80;100.00
45357;BME280;31092;51.924;21.448;2023-03-14T06:55:47;98401.09;;;8.33;100.00
45357;BME280;31092;51.924;21.448;2023-03-14T06:58:12;98316.03;;;7.92;100.00
45357;BME280;31092;51.924;21.448;2023-03-14T07:00:38;98302.88;;;7.98;100.00
45357;BME280;31092;51.924;21.448;2023-03-14T07:03:03;98375.03;;;8.55;100.00
45357;BME280;31092;51.924;21.448;2023-03-14T07:05:30;98327.41;;;8.29;100.00
45357;BME280;31092;51.924;21.448;2023-03-14T07:07:56;98374.28;;;8.68;100.00
45357;BME280;31092;51.924;21.448;2023-03-14T07:10:21;98319.25;;;8.44;100.00
45357;BME280;31092;51.924;21.448;2023-03-14T07:12:47;98288.09;;;8.43;100.00
45357;BME280;31092;51.924;21.448;2023-03-14T07:15:12;98377.09;;;9.01;100.00
45357;BME280;31092;51.924;21.448;2023-03-14T07:17:38;98333.69;;;8.91;100.00
45357;BME280;31092;51.924;21.448;2023-03-14T07:20:04;98388.53;;;9.30;100.00
45357;BME280;31092;51.924;21.448;2023-03-14T07:22:30;98358.59;;;9.40;100.00
45357;BME280;31092;51.924;21.448;2023-03-14T07:24:56;98364.19;;;9.51;100.00
45357;BME280;31092;51.924;21.448;2023-03-14T07:27:21;98364.00;;;9.66;100.00
45357;BME280;31092;51.924;21.448;2023-03-14T07:29:47;98342.31;;;9.68;100.00
45357;BME280;31092;51.924;21.448;2023-03-14T07:32:12;98266.44;;;9.32;100.00
45357;BME280;31092;51.924;21.448;2023-03-14T07:34:41;98365.25;;;10.03;100.00
45357;BME280;31092;51.924;21.448;2023-03-14T07:37:06;98382.63;;;10.27;100.00
45357;BME280;31092;51.924;21.448;2023-03-14T07:39:32;98317.25;;;9.94;100.00
45357;BME280;31092;51.924;21.448;2023-03-14T07:41:57;98330.88;;;10.12;100.00
45357;BME280;31092;51.924;21.448;2023-03-14T07:44:23;98341.00;;;10.37;100.00
45357;BME280;31092;51.924;21.448;2023-03-14T07:46:48;98376.94;;;10.75;100.00
45357;BME280;31092;51.924;21.448;2023-03-14T07:49:14;98315.09;;;10.49;100.00
45357;BME280;31092;51.924;21.448;2023-03-14T07:51:39;98388.78;;;11.13;100.00
45357;BME280;31092;51.924;21.448;2023-03-14T07:54:05;98374.44;;;11.25;100.00
45357;BME280;31092;51.924;21.448;2023-03-14T07:56:30;98315.19;;;11.19;100.00
45357;BME280;31092;51.924;21.448;2023-03-14T07:58:56;98367.81;;;11.60;100.00
45357;BME280;31092;51.924;21.448;2023-03-14T08:01:22;98287.09;;;11.33;100.00
45357;BME280;31092;51.924;21.448;2023-03-14T08:03:47;98367.66;;;12.05;100.00
45357;BME280;31092;51.924;21.448;2023-03-14T08:06:13;98364.19;;;12.22;100.00
45357;BME280;31092;51.924;21.448;2023-03-14T08:08:39;98351.63;;;12.35;100.00
45357;BME280;31092;51.924;21.448;2023-03-14T08:11:06;98316.72;;;12.33;100.00
45357;BME280;31092;51.924;21.448;2023-03-14T08:13:34;98316.28;;;12.55;100.00
45357;BME280;31092;51.924;21.448;2023-03-14T08:15:59;98354.59;;;13.00;100.00
45357;BME280;31092;51.924;21.448;2023-03-14T08:18:25;98306.88;;;12.94;100.00
45357;BME280;31092;51.924;21.448;2023-03-14T08:20:51;98289.19;;;13.10;100.00
45357;BME280;31092;51.924;21.448;2023-03-14T08:23:16;98366.06;;;13.86;100.00
45357;BME280;31092;51.924;21.448;2023-03-14T08:25:42;98316.91;;;13.77;100.00
45357;BME280;31092;51.924;21.448;2023-03-14T08:28:08;98302.66;;;13.70;100.00
45357;BME280;31092;51.924;21.448;2023-03-14T08:30:33;98299.50;;;13.73;100.00
45357;BME280;31092;51.924;21.448;2023-03-14T08:32:59;98347.16;;;14.21;100.00
45357;BME280;31092;51.924;21.448;2023-03-14T08:35:26;98360.47;;;14.34;100.00
45357;BME280;31092;51.924;21.448;2023-03-14T08:37:51;98343.97;;;14.48;100.00
45357;BME280;31092;51.924;21.448;2023-03-14T08:40:17;98329.84;;;14.57;100.00
45357;BME280;31092;51.924;21.448;2023-03-14T08:42:44;98272.84;;;14.41;100.00
45357;BME280;31092;51.924;21.448;2023-03-14T08:45:12;98354.50;;;14.96;100.00
45357;BME280;31092;51.924;21.448;2023-03-14T08:47:38;98323.59;;;15.09;100.00
45357;BME280;31092;51.924;21.448;2023-03-14T08:50:05;98297.56;;;15.25;100.00
45357;BME280;31092;51.924;21.448;2023-03-14T08:52:31;98306.50;;;15.54;100.00
45357;BME280;31092;51.924;21.448;2023-03-14T08:54:58;98255.09;;;15.30;100.00
45357;BME280;31092;51.924;21.448;2023-03-14T08:57:24;98292.78;;;15.61;100.00
45357;BME280;31092;51.924;21.448;2023-03-14T08:59:53;98238.66;;;15.54;100.00
45357;BME280;31092;51.924;21.448;2023-03-14T09:02:20;98241.31;;;15.83;100.00
45357;BME280;31092;51.924;21.448;2023-03-14T09:04:45;98274.00;;;16.26;100.00
45357;BME280;31092;51.924;21.448;2023-03-14T09:07:11;98298.75;;;16.69;100.00
45357;BME280;31092;51.924;21.448;2023-03-14T09:09:36;98226.50;;;16.51;100.00
45357;BME280;31092;51.924;21.448;2023-03-14T09:12:02;98234.44;;;16.36;100.00
45357;BME280;31092;51.924;21.448;2023-03-14T09:14:28;98219.78;;;16.15;100.00
45357;BME280;31092;51.924;21.448;2023-03-14T09:16:54;98269.84;;;16.63;100.00
45357;BME280;31092;51.924;21.448;2023-03-14T09:19:20;98234.44;;;16.58;100.00
45357;BME280;31092;51.924;21.448;2023-03-14T09:21:45;98295.06;;;17.02;100.00
45357;BME280;31092;51.924;21.448;2023-03-14T09:24:11;98278.19;;;16.56;100.00
45357;BME280;31092;51.924;21.448;2023-03-14T09:26:36;98261.22;;;16.05;100.00
45357;BME280;31092;51.924;21.448;2023-03-14T09:29:02;98225.88;;;15.83;100.00
45357;BME280;31092;51.924;21.448;2023-03-14T09:31:27;98287.75;;;16.81;100.00
45357;BME280;31092;51.924;21.448;2023-03-14T09:33:53;98282.13;;;17.14;100.00
45357;BME280;31092;51.924;21.448;2023-03-14T09:36:19;98277.03;;;17.50;100.00
45357;BME280;31092;51.924;21.448;2023-03-14T09:38:44;98287.22;;;17.92;100.00
45357;BME280;31092;51.924;21.448;2023-03-14T09:41:17;98204.72;;;17.59;100.00
45357;BME280;31092;51.924;21.448;2023-03-14T09:43:44;98267.31;;;17.54;100.00
45357;BME280;31092;51.924;21.448;2023-03-14T09:46:12;98221.97;;;17.06;100.00
45357;BME280;31092;51.924;21.448;2023-03-14T09:48:39;98264.94;;;17.36;100.00
45357;BME280;31092;51.924;21.448;2023-03-14T09:51:12;98274.91;;;17.25;100.00
45357;BME280;31092;51.924;21.448;2023-03-14T09:53:44;98257.59;;;16.82;100.00
45357;BME280;31092;51.924;21.448;2023-03-14T09:56:20;98265.13;;;16.75;100.00
45357;BME280;31092;51.924;21.448;2023-03-14T09:58:53;98207.91;;;15.99;100.00
45357;BME280;31092;51.924;21.448;2023-03-14T10:01:24;98208.88;;;15.93;100.00
45357;BME280;31092;51.924;21.448;2023-03-14T10:03:50;98270.25;;;16.33;100.00
45357;BME280;31092;51.924;21.448;2023-03-14T10:06:17;98223.34;;;16.15;100.00
45357;BME280;31092;51.924;21.448;2023-03-14T10:08:44;98192.69;;;16.20;100.00
45357;BME280;31092;51.924;21.448;2023-03-14T10:11:17;98195.34;;;16.37;100.00
45357;BME280;31092;51.924;21.448;2023-03-14T10:14:06;98268.56;;;16.92;100.00
45357;BME280;31092;51.924;21.448;2023-03-14T10:16:40;98177.00;;;16.49;100.00
45357;BME280;31092;51.924;21.448;2023-03-14T10:19:14;98192.03;;;16.57;100.00
45357;BME280;31092;51.924;21.448;2023-03-14T10:21:42;98206.00;;;16.87;100.00
45357;BME280;31092;51.924;21.448;2023-03-14T10:26:47;98174.19;;;16.88;100.00
45357;BME280;31092;51.924;21.448;2023-03-14T10:29:13;98230.63;;;17.30;100.00
45357;BME280;31092;51.924;21.448;2023-03-14T10:31:55;98245.81;;;16.98;100.00
45357;BME280;31092;51.924;21.448;2023-03-14T10:34:31;98175.59;;;16.19;100.00
45357;BME280;31092;51.924;21.448;2023-03-14T10:37:03;98258.47;;;16.44;100.00
45357;BME280;31092;51.924;21.448;2023-03-14T10:39:50;98198.75;;;16.49;100.00
45357;BME280;31092;51.924;21.448;2023-03-14T10:42:30;98177.25;;;16.96;100.00
45357;BME280;31092;51.924;21.448;2023-03-14T10:45:25;98234.19;;;17.67;100.00
45357;BME280;31092;51.924;21.448;2023-03-14T10:47:51;98168.16;;;17.45;100.00
45357;BME280;31092;51.924;21.448;2023-03-14T10:50:25;98235.19;;;17.88;100.00
45357;BME280;31092;51.924;21.448;2023-03-14T10:52:52;98165.41;;;17.40;100.00
45357;BME280;31092;51.924;21.448;2023-03-14T10:55:17;98211.19;;;17.53;100.00
45357;BME280;31092;51.924;21.448;2023-03-14T10:57:43;98161.41;;;17.15;100.00
45357;BME280;31092;51.924;21.448;2023-03-14T11:00:17;98230.25;;;17.53;100.00
45357;BME280;31092;51.924;21.448;2023-03-14T11:11:21;98238.13;;;16.90;100.00
45357;BME280;31092;51.924;21.448;2023-03-14T11:21:50;98192.31;;;16.77;100.00
45357;BME280;31092;51.924;21.448;2023-03-14T11:27:06;98154.09;;;16.18;100.00
45357;BME280;31092;51.924;21.448;2023-03-14T11:29:58;98204.38;;;16.20;100.00
45357;BME280;31092;51.924;21.448;2023-03-14T11:37:48;98207.03;;;16.37;100.00
45357;BME280;31092;51.924;21.448;2023-03-14T11:40:20;98161.69;;;15.94;100.00
45357;BME280;31092;51.924;21.448;2023-03-14T11:42:53;98131.53;;;15.56;100.00
45357;BME280;31092;51.924;21.448;2023-03-14T11:45:25;98203.41;;;15.88;100.00
45357;BME280;31092;51.924;21.448;2023-03-14T11:51:16;98192.38;;;15.61;100.00
45357;BME280;31092;51.924;21.448;2023-03-14T11:53:49;98133.56;;;15.11;100.00
45357;BME280;31092;51.924;21.448;2023-03-14T11:56:27;98195.94;;;15.44;100.00
45357;BME280;31092;51.924;21.448;2023-03-14T11:58:58;98192.41;;;15.27;100.00
45357;BME280;31092;51.924;21.448;2023-03-14T12:01:31;98185.91;;;15.28;100.00
45357;BME280;31092;51.924;21.448;2023-03-14T12:04:09;98139.06;;;15.16;100.00
45357;BME280;31092;51.924;21.448;2023-03-14T12:06:50;98211.50;;;15.66;100.00
45357;BME280;31092;51.924;21.448;2023-03-14T12:09:20;98197.56;;;15.62;100.00
45357;BME280;31092;51.924;21.448;2023-03-14T12:11:58;98154.00;;;15.18;100.00
45357;BME280;31092;51.924;21.448;2023-03-14T12:14:27;98212.38;;;15.38;100.00
45357;BME280;31092;51.924;21.448;2023-03-14T12:17:17;98129.44;;;14.74;100.00
45357;BME280;31092;51.924;21.448;2023-03-14T12:19:43;98221.72;;;15.13;100.00
45357;BME280;31092;51.924;21.448;2023-03-14T12:22:30;98150.50;;;14.55;100.00
45357;BME280;31092;51.924;21.448;2023-03-14T12:25:05;98122.84;;;14.42;100.00
45357;BME280;31092;51.924;21.448;2023-03-14T12:30:16;98122.72;;;14.48;100.00
45357;BME280;31092;51.924;21.448;2023-03-14T12:35:47;98136.03;;;14.50;100.00
45357;BME280;31092;51.924;21.448;2023-03-14T12:43:33;98124.44;;;14.26;100.00
45357;BME280;31092;51.924;21.448;2023-03-14T12:49:05;98196.56;;;14.72;100.00
45357;BME280;31092;51.924;21.448;2023-03-14T12:51:38;98179.16;;;14.68;100.00
45357;BME280;31092;51.924;21.448;2023-03-14T13:00:24;98203.56;;;15.47;100.00
45357;BME280;31092;51.924;21.448;2023-03-14T13:03:01;98118.19;;;14.82;100.00
45357;BME280;31092;51.924;21.448;2023-03-14T13:05:29;98199.13;;;15.24;100.00
45357;BME280;31092;51.924;21.448;2023-03-14T13:10:24;98214.34;;;15.08;100.00
45357;BME280;31092;51.924;21.448;2023-03-14T13:12:54;98218.97;;;14.96;100.00
45357;BME280;31092;51.924;21.448;2023-03-14T13:15:32;98217.06;;;14.80;100.00
45357;BME280;31092;51.924;21.448;2023-03-14T13:18:02;98138.00;;;14.14;100.00
45357;BME280;31092;51.924;21.448;2023-03-14T13:20:32;98220.94;;;14.55;100.00
45357;BME280;31092;51.924;21.448;2023-03-14T13:22:59;98209.16;;;14.38;100.00
45357;BME280;31092;51.924;21.448;2023-03-14T13:25:29;98144.38;;;14.08;100.00
45357;BME280;31092;51.924;21.448;2023-03-14T13:27:55;98138.97;;;14.08;100.00
45357;BME280;31092;51.924;21.448;2023-03-14T13:30:35;98154.44;;;13.96;100.00
45357;BME280;31092;51.924;21.448;2023-03-14T13:33:04;98158.91;;;13.78;100.00
45357;BME280;31092;51.924;21.448;2023-03-14T13:35:39;98160.47;;;13.62;100.00
45357;BME280;31092;51.924;21.448;2023-03-14T13:38:04;98201.38;;;13.78;100.00
45357;BME280;31092;51.924;21.448;2023-03-14T13:40:32;98237.13;;;13.80;100.00
45357;BME280;31092;51.924;21.448;2023-03-14T13:43:17;98219.13;;;13.50;100.00
45357;BME280;31092;51.924;21.448;2023-03-14T13:46:03;98257.97;;;13.56;100.00
45357;BME280;31092;51.924;21.448;2023-03-14T13:48:31;98255.91;;;13.39;100.00
45357;BME280;31092;51.924;21.448;2023-03-14T13:51:05;98261.13;;;13.23;100.00
45357;BME280;31092;51.924;21.448;2023-03-14T13:53:33;98261.22;;;13.04;100.00